Time;durP1;ratioP1;P1;durP2;ratioP2;P2;SDS_P1;SDS_P2;PMS_P1;PMS_P2;Temp;Humidity;BMP_temperature;BMP_pressure;BME280_temperature;BME280_humidity;BME280_pressure;Samples;Min_cycle;Max_cycle;Signal;HPM_P1;HPM_P2
2022/02/20 00:01:11;;;;;;;2.57;1.00;;;4.50;99.90;;;;;;5017175;28;20213;-82
2022/02/20 00:03:39;;;;;;;5.07;1.03;;;4.60;99.90;;;;;;5014166;28;20201;-80
2022/02/20 00:06:08;;;;;;;3.63;1.23;;;4.60;99.90;;;;;;5006493;28;20270;-80
2022/02/20 00:08:35;;;;;;;2.77;0.90;;;4.60;99.90;;;;;;5007766;28;20201;-81
2022/02/20 00:11:09;;;;;;;1.53;0.80;;;4.60;99.90;;;;;;5020784;28;20619;-80
2022/02/20 00:13:36;;;;;;;3.17;1.10;;;4.60;99.90;;;;;;5004124;28;20220;-78
2022/02/20 00:16:10;;;;;;;4.47;1.30;;;4.60;99.90;;;;;;5011022;28;20686;-78
2022/02/20 00:18:38;;;;;;;2.40;0.90;;;4.60;99.90;;;;;;5017855;28;20217;-78
2022/02/20 00:21:11;;;;;;;2.57;1.10;;;4.70;99.90;;;;;;5039324;28;20206;-80
2022/02/20 00:23:37;;;;;;;3.23;1.10;;;4.80;99.90;;;;;;5050452;28;20258;-77
2022/02/20 00:26:10;;;;;;;2.10;0.90;;;4.80;99.90;;;;;;5003493;28;20213;-78
2022/02/20 00:28:38;;;;;;;1.30;0.80;;;4.70;99.90;;;;;;5014816;28;20698;-78
2022/02/20 00:31:11;;;;;;;2.17;0.93;;;4.70;99.90;;;;;;5004201;28;20262;-78
2022/02/20 00:33:39;;;;;;;2.23;0.90;;;4.70;99.90;;;;;;5014961;28;20205;-78
2022/02/20 00:36:09;;;;;;;1.33;1.23;;;4.70;99.90;;;;;;5005360;28;20316;-77
2022/02/20 00:38:36;;;;;;;2.10;0.90;;;4.70;99.90;;;;;;5010161;28;20294;-77
2022/02/20 00:41:10;;;;;;;1.30;1.10;;;4.60;99.90;;;;;;5021051;28;20210;-78
2022/02/20 00:43:37;;;;;;;2.90;0.90;;;4.50;99.90;;;;;;5005636;28;20208;-77
2022/02/20 00:46:09;;;;;;;2.20;1.10;;;4.50;99.90;;;;;;5009828;28;20214;-78
2022/02/20 00:48:36;;;;;;;3.03;0.87;;;4.50;99.90;;;;;;5005598;28;20266;-78
2022/02/20 00:51:08;;;;;;;2.80;0.90;;;4.30;99.90;;;;;;5009098;28;20556;-78
2022/02/20 00:53:35;;;;;;;2.50;1.20;;;4.20;99.90;;;;;;5008111;28;20248;-77
2022/02/20 00:56:02;;;;;;;3.40;1.10;;;4.10;99.90;;;;;;5003335;28;20290;-78
2022/02/20 00:58:28;;;;;;;2.23;1.03;;;4.20;99.90;;;;;;5022434;28;20228;-78
2022/02/20 01:00:55;;;;;;;2.43;1.10;;;4.20;99.90;;;;;;5015954;28;20235;-77
2022/02/20 01:03:22;;;;;;;3.73;1.40;;;4.20;99.90;;;;;;5010793;28;20206;-78
2022/02/20 01:05:48;;;;;;;3.27;1.37;;;4.20;99.90;;;;;;5004203;28;20334;-77
2022/02/20 01:08:16;;;;;;;1.90;1.10;;;4.20;99.90;;;;;;5072273;28;20710;-77
2022/02/20 01:10:43;;;;;;;3.33;1.00;;;4.10;99.90;;;;;;5018528;28;20207;-77
2022/02/20 01:13:10;;;;;;;2.40;1.30;;;4.10;99.90;;;;;;5006200;28;20231;-77
2022/02/20 01:15:36;;;;;;;5.60;1.40;;;4.00;99.90;;;;;;5024383;28;20233;-78
2022/02/20 01:18:03;;;;;;;2.67;1.00;;;3.90;99.90;;;;;;5007830;28;20205;-79
2022/02/20 01:20:30;;;;;;;2.10;1.20;;;4.00;99.90;;;;;;5027999;28;20217;-79
2022/02/20 01:22:57;;;;;;;4.27;1.33;;;3.90;99.90;;;;;;5010499;28;20716;-79
2022/02/20 01:25:25;;;;;;;1.43;1.07;;;3.90;99.90;;;;;;5029602;28;20213;-79
2022/02/20 01:27:51;;;;;;;4.63;1.60;;;3.80;99.90;;;;;;5012205;28;20213;-79
2022/02/20 01:30:18;;;;;;;3.03;1.20;;;3.80;99.90;;;;;;5009427;28;20202;-79
2022/02/20 01:32:45;;;;;;;3.27;1.30;;;3.80;99.90;;;;;;5006242;28;20212;-79
2022/02/20 01:35:12;;;;;;;1.97;1.30;;;3.80;99.90;;;;;;5017809;28;20559;-78
2022/02/20 01:37:38;;;;;;;2.13;1.80;;;3.80;99.90;;;;;;5024956;28;20232;-77
2022/02/20 01:40:06;;;;;;;3.10;2.13;;;4.00;99.90;;;;;;5017807;28;20267;-77
2022/02/20 01:42:34;;;;;;;4.20;1.90;;;4.10;99.90;;;;;;5005173;28;20210;-77
2022/02/20 01:45:00;;;;;;;2.60;2.07;;;3.80;99.90;;;;;;5006725;28;20213;-77
2022/02/20 01:47:29;;;;;;;3.50;2.00;;;3.70;99.90;;;;;;5011149;28;20666;-77
2022/02/20 01:49:56;;;;;;;2.03;1.47;;;3.80;99.90;;;;;;5000172;28;20213;-77
2022/02/20 01:52:23;;;;;;;3.13;1.97;;;3.90;99.90;;;;;;5011135;28;20202;-77
2022/02/20 01:54:51;;;;;;;1.80;1.70;;;4.00;99.90;;;;;;5012328;28;20230;-77
2022/02/20 01:57:19;;;;;;;2.20;1.80;;;4.10;99.90;;;;;;5005530;28;20233;-77
2022/02/20 01:59:47;;;;;;;3.60;2.00;;;4.00;99.90;;;;;;5010325;28;20263;-77
2022/02/20 02:02:19;;;;;;;3.53;1.90;;;4.10;99.90;;;;;;5012598;28;20202;-77
2022/02/20 02:04:46;;;;;;;4.40;2.00;;;4.10;99.90;;;;;;5011260;28;20610;-77
2022/02/20 02:07:13;;;;;;;2.47;1.80;;;4.10;99.90;;;;;;5011519;28;20221;-77
2022/02/20 02:09:39;;;;;;;3.87;2.13;;;4.10;99.90;;;;;;5011799;28;20212;-77
2022/02/20 02:12:09;;;;;;;2.10;1.47;;;4.10;99.90;;;;;;5003875;28;20210;-78
2022/02/20 02:14:55;;;;;;;2.03;1.50;;;4.10;99.90;;;;;;5005545;28;20742;-77
2022/02/20 02:17:22;;;;;;;1.97;1.37;;;4.10;99.90;;;;;;5021770;28;20237;-78
2022/02/20 02:19:48;;;;;;;2.70;1.30;;;4.00;99.90;;;;;;5006649;28;20255;-77
2022/02/20 02:22:18;;;;;;;2.03;1.20;;;4.10;99.90;;;;;;5012042;28;20213;-77
2022/02/20 02:24:45;;;;;;;1.47;1.10;;;4.10;99.90;;;;;;5007402;28;20210;-77
2022/02/20 02:27:14;;;;;;;2.53;1.70;;;4.10;99.90;;;;;;5005477;28;20217;-77
2022/02/20 02:29:40;;;;;;;1.83;1.33;;;4.10;99.90;;;;;;5008715;28;20213;-77
2022/02/20 02:32:08;;;;;;;1.77;1.17;;;4.10;99.90;;;;;;5093399;28;20254;-76
2022/02/20 02:34:34;;;;;;;1.50;1.33;;;4.10;99.90;;;;;;5005988;28;20209;-76
2022/02/20 02:37:01;;;;;;;2.20;1.30;;;4.10;99.90;;;;;;5005402;28;20241;-76
2022/02/20 02:39:30;;;;;;;1.40;1.10;;;4.00;99.90;;;;;;4999067;28;20626;-77
2022/02/20 02:41:57;;;;;;;1.70;1.40;;;4.10;99.90;;;;;;5002586;28;20262;-76
2022/02/20 02:44:23;;;;;;;2.70;1.30;;;3.90;99.90;;;;;;5005633;28;20213;-76
2022/02/20 02:46:50;;;;;;;1.07;1.07;;;3.90;99.90;;;;;;5010622;28;20209;-76
2022/02/20 02:49:17;;;;;;;1.50;1.40;;;3.90;99.90;;;;;;5005377;28;20627;-76
2022/02/20 02:51:43;;;;;;;1.30;1.20;;;4.00;99.90;;;;;;5012200;28;20206;-76
2022/02/20 02:54:12;;;;;;;1.40;1.30;;;3.90;99.90;;;;;;5009461;28;20237;-76
2022/02/20 02:56:40;;;;;;;2.00;1.30;;;3.90;99.90;;;;;;5005264;28;20256;-75
2022/02/20 02:59:07;;;;;;;1.40;1.30;;;4.00;99.90;;;;;;5026381;28;20816;-75
2022/02/20 03:01:34;;;;;;;1.43;1.33;;;4.00;99.90;;;;;;5077932;28;20720;-75
2022/02/20 03:04:00;;;;;;;1.37;1.17;;;4.00;99.90;;;;;;5001936;28;20252;-74
2022/02/20 03:06:27;;;;;;;2.50;1.73;;;4.00;99.90;;;;;;5002214;27;20617;-75
2022/02/20 03:08:53;;;;;;;2.10;1.40;;;4.00;99.90;;;;;;5003538;28;20247;-75
2022/02/20 03:11:20;;;;;;;2.20;1.63;;;4.00;99.90;;;;;;5001149;28;20221;-76
2022/02/20 03:13:48;;;;;;;2.57;1.70;;;4.00;99.90;;;;;;5003023;28;20270;-74
2022/02/20 03:16:16;;;;;;;2.03;1.60;;;3.80;99.90;;;;;;5002079;28;20640;-75
2022/02/20 03:18:42;;;;;;;2.30;1.50;;;3.90;99.90;;;;;;5003073;28;20358;-75
2022/02/20 03:21:12;;;;;;;2.53;1.43;;;3.90;99.90;;;;;;5003330;28;20258;-74
2022/02/20 03:23:38;;;;;;;2.13;1.30;;;3.90;99.90;;;;;;5000158;28;20718;-74
2022/02/20 03:26:12;;;;;;;1.67;1.57;;;3.80;99.90;;;;;;5003112;28;20663;-74
2022/02/20 03:28:39;;;;;;;1.50;1.40;;;3.70;99.90;;;;;;5001883;28;20232;-74
2022/02/20 03:31:13;;;;;;;2.00;1.43;;;3.70;99.90;;;;;;5002563;28;20282;-75
2022/02/20 03:33:40;;;;;;;1.30;1.27;;;3.60;99.90;;;;;;4990397;28;20207;-75
2022/02/20 03:36:14;;;;;;;2.87;1.50;;;3.60;99.90;;;;;;4996894;28;20217;-75
2022/02/20 03:38:41;;;;;;;1.63;1.53;;;3.50;99.90;;;;;;4984130;28;20212;-75
2022/02/20 03:41:11;;;;;;;1.93;1.57;;;3.50;99.90;;;;;;5000344;28;20233;-75
2022/02/20 03:43:38;;;;;;;1.67;1.40;;;3.50;99.90;;;;;;5001688;28;20209;-80
2022/02/20 03:46:15;;;;;;;1.40;1.30;;;3.50;99.90;;;;;;4994697;28;20726;-80
2022/02/20 03:48:42;;;;;;;1.67;1.57;;;3.40;99.90;;;;;;4998946;28;21031;-79
2022/02/20 03:51:11;;;;;;;3.10;1.73;;;3.50;99.90;;;;;;5002906;28;20707;-79
2022/02/20 03:53:38;;;;;;;1.93;1.37;;;3.50;99.90;;;;;;5000369;28;20241;-79
2022/02/20 03:56:12;;;;;;;1.50;1.33;;;3.50;99.90;;;;;;5002338;28;20675;-79
2022/02/20 03:58:38;;;;;;;2.47;1.47;;;3.40;99.90;;;;;;5001061;28;20328;-78
2022/02/20 04:01:11;;;;;;;2.30;1.50;;;3.50;99.90;;;;;;5001699;27;20707;-76
2022/02/20 04:03:41;;;;;;;1.20;1.10;;;3.50;99.90;;;;;;5001896;28;20217;-78
2022/02/20 04:06:17;;;;;;;1.10;1.10;;;3.40;99.90;;;;;;5000485;28;20286;-78
2022/02/20 04:08:44;;;;;;;1.27;0.97;;;3.40;99.90;;;;;;5002049;28;20224;-78
2022/02/20 04:11:13;;;;;;;1.43;1.40;;;3.30;99.90;;;;;;5000947;28;20931;-77
2022/02/20 04:13:40;;;;;;;2.27;1.10;;;3.30;99.90;;;;;;5000503;28;20213;-77
2022/02/20 04:16:16;;;;;;;1.50;1.13;;;3.30;99.90;;;;;;4984702;28;20206;-77
2022/02/20 04:18:44;;;;;;;0.90;0.90;;;3.30;99.90;;;;;;5000472;28;20582;-78
2022/02/20 04:21:16;;;;;;;1.23;1.13;;;3.30;99.90;;;;;;5002112;28;20205;-77
2022/02/20 04:23:43;;;;;;;1.23;1.00;;;3.30;99.90;;;;;;5001768;28;20213;-77
2022/02/20 04:26:15;;;;;;;1.03;1.00;;;3.30;99.90;;;;;;5000248;28;20594;-77
2022/02/20 04:28:41;;;;;;;0.80;0.80;;;3.30;99.90;;;;;;4990741;28;20251;-77
2022/02/20 04:31:14;;;;;;;2.83;1.20;;;3.30;99.90;;;;;;4999822;28;20208;-77
2022/02/20 04:33:41;;;;;;;0.77;0.77;;;3.30;99.90;;;;;;5001085;28;20722;-77
2022/02/20 04:36:13;;;;;;;1.10;1.00;;;3.30;99.90;;;;;;5002031;28;20237;-77
2022/02/20 04:38:40;;;;;;;0.97;0.97;;;3.40;99.90;;;;;;4999879;28;20699;-77
2022/02/20 04:41:12;;;;;;;0.80;0.80;;;3.40;99.90;;;;;;5001822;28;20210;-79
2022/02/20 04:43:39;;;;;;;1.00;1.00;;;3.40;99.90;;;;;;4999424;28;20262;-80
2022/02/20 04:46:12;;;;;;;1.13;1.07;;;3.40;99.90;;;;;;4999204;28;20210;-78
2022/02/20 04:48:39;;;;;;;1.03;1.03;;;3.50;99.90;;;;;;5000956;28;20213;-79
2022/02/20 04:51:16;;;;;;;1.97;1.10;;;3.40;99.90;;;;;;5001287;28;20210;-80
2022/02/20 04:53:43;;;;;;;1.77;1.00;;;3.40;99.90;;;;;;4984626;28;20245;-80
2022/02/20 04:56:10;;;;;;;1.20;1.10;;;3.40;99.90;;;;;;4994510;28;20218;-80
2022/02/20 04:58:37;;;;;;;1.20;1.20;;;3.40;99.90;;;;;;4989360;28;20248;-79
2022/02/20 05:01:03;;;;;;;1.90;1.30;;;3.40;99.90;;;;;;5002028;28;20240;-79
2022/02/20 05:03:30;;;;;;;1.37;1.20;;;3.50;99.90;;;;;;4999747;28;20251;-79
2022/02/20 05:05:57;;;;;;;1.17;1.17;;;3.50;99.90;;;;;;5000593;28;20290;-79
2022/02/20 05:08:25;;;;;;;1.90;1.13;;;3.50;99.90;;;;;;4996832;28;20214;-77
2022/02/20 05:10:51;;;;;;;1.40;1.30;;;3.50;99.90;;;;;;4986918;28;20238;-77
2022/02/20 05:13:18;;;;;;;1.13;1.13;;;3.40;99.90;;;;;;4991909;28;20216;-76
2022/02/20 05:15:47;;;;;;;1.20;1.20;;;3.40;99.90;;;;;;4993498;28;20213;-77
2022/02/20 05:18:13;;;;;;;1.30;1.10;;;3.40;99.90;;;;;;5000253;28;20245;-77
2022/02/20 05:20:42;;;;;;;1.67;1.40;;;3.50;99.90;;;;;;5005586;28;20231;-75
2022/02/20 05:23:08;;;;;;;1.60;1.50;;;3.50;99.90;;;;;;5002145;28;20300;-76
2022/02/20 05:25:36;;;;;;;1.70;1.60;;;3.50;99.90;;;;;;5001971;28;20243;-76
2022/02/20 05:28:03;;;;;;;1.80;1.70;;;3.40;99.90;;;;;;5007635;28;20214;-76
2022/02/20 05:30:30;;;;;;;1.60;1.50;;;3.50;99.90;;;;;;5008571;28;20290;-76
2022/02/20 05:32:57;;;;;;;1.70;1.60;;;3.50;99.90;;;;;;5013681;28;20217;-76
2022/02/20 05:35:23;;;;;;;1.80;1.70;;;3.50;99.90;;;;;;5001569;28;20217;-76
2022/02/20 05:37:51;;;;;;;2.20;1.67;;;3.50;99.90;;;;;;5007914;28;20257;-76
2022/02/20 05:40:20;;;;;;;2.03;1.90;;;3.50;99.90;;;;;;5007557;28;20956;-77
2022/02/20 05:42:48;;;;;;;1.70;1.60;;;3.50;99.90;;;;;;5001758;28;20208;-77
2022/02/20 05:45:15;;;;;;;2.07;1.90;;;3.60;99.90;;;;;;5001335;28;20268;-78
2022/02/20 05:47:42;;;;;;;1.80;1.67;;;3.50;99.90;;;;;;5002930;28;20263;-79
2022/02/20 05:50:11;;;;;;;1.80;1.70;;;3.50;99.90;;;;;;5002165;28;20210;-79
2022/02/20 05:52:38;;;;;;;1.93;1.83;;;3.50;99.90;;;;;;5002156;28;20602;-79
2022/02/20 05:55:06;;;;;;;1.90;1.70;;;3.60;99.90;;;;;;5002423;28;20249;-79
2022/02/20 05:57:43;;;;;;;2.10;2.00;;;3.60;99.90;;;;;;5001780;28;20644;-80
2022/02/20 06:00:13;;;;;;;2.00;1.90;;;3.60;99.90;;;;;;5001645;28;20202;-79
2022/02/20 06:02:40;;;;;;;2.00;1.90;;;3.60;99.90;;;;;;5003289;28;20212;-79
2022/02/20 06:05:07;;;;;;;1.97;1.80;;;3.60;99.90;;;;;;5005719;28;20217;-79
2022/02/20 06:07:34;;;;;;;1.97;1.53;;;3.60;99.90;;;;;;5007530;28;20592;-79
2022/02/20 06:10:01;;;;;;;1.97;1.87;;;3.60;99.90;;;;;;5010666;28;20221;-80
2022/02/20 06:12:31;;;;;;;1.90;1.80;;;3.60;99.90;;;;;;5003330;28;20972;-78
2022/02/20 06:14:58;;;;;;;2.13;1.93;;;3.60;99.90;;;;;;5008349;28;20323;-79
2022/02/20 06:17:28;;;;;;;1.90;1.80;;;3.60;99.90;;;;;;4990252;28;20237;-79
2022/02/20 06:19:54;;;;;;;2.00;1.90;;;3.60;99.90;;;;;;5009989;28;20213;-80
2022/02/20 06:22:21;;;;;;;2.30;2.10;;;3.60;99.90;;;;;;5009632;28;20248;-80
2022/02/20 06:24:48;;;;;;;2.23;2.13;;;3.60;99.90;;;;;;5011256;28;20246;-82
2022/02/20 06:27:15;;;;;;;2.67;2.50;;;3.60;99.90;;;;;;5008930;28;20209;-82
2022/02/20 06:29:42;;;;;;;2.30;2.20;;;3.60;99.90;;;;;;5089516;28;20213;-81
2022/02/20 06:32:08;;;;;;;2.00;1.90;;;3.60;99.90;;;;;;5009535;28;20213;-79
2022/02/20 06:34:36;;;;;;;2.20;2.10;;;3.70;99.90;;;;;;5004629;28;20270;-79
2022/02/20 06:37:04;;;;;;;2.17;2.07;;;3.60;99.90;;;;;;5006710;28;20262;-78
2022/02/20 06:39:31;;;;;;;2.70;1.87;;;3.70;99.90;;;;;;5010636;28;20229;-79
2022/02/20 06:41:58;;;;;;;1.87;1.77;;;3.60;99.90;;;;;;4997492;28;20757;-79
2022/02/20 06:44:24;;;;;;;1.93;1.83;;;3.60;99.90;;;;;;5010380;28;20897;-80
2022/02/20 06:46:51;;;;;;;2.07;1.93;;;3.60;99.90;;;;;;5010378;28;20220;-79
2022/02/20 06:49:18;;;;;;;2.20;2.10;;;3.70;99.90;;;;;;5011133;28;20274;-79
2022/02/20 06:51:46;;;;;;;2.10;2.00;;;3.70;99.90;;;;;;5003735;28;20895;-79
2022/02/20 06:54:13;;;;;;;1.90;1.80;;;3.70;99.90;;;;;;5004380;28;20286;-79
2022/02/20 06:56:39;;;;;;;2.13;2.03;;;3.70;99.90;;;;;;5003247;28;20294;-79
2022/02/20 06:59:06;;;;;;;2.10;1.93;;;3.70;99.90;;;;;;5003953;28;20233;-80
2022/02/20 07:01:38;;;;;;;2.30;2.20;;;3.70;99.90;;;;;;5005614;28;20237;-80
2022/02/20 07:04:05;;;;;;;2.40;2.30;;;3.70;99.90;;;;;;5009991;28;20350;-80
2022/02/20 07:06:34;;;;;;;2.27;2.17;;;3.80;99.90;;;;;;4989624;28;20233;-80
2022/02/20 07:09:05;;;;;;;2.80;2.10;;;3.80;99.90;;;;;;5003221;28;20237;-79
2022/02/20 07:11:32;;;;;;;2.43;2.33;;;3.80;99.90;;;;;;5004119;28;20210;-79
2022/02/20 07:14:07;;;;;;;2.10;2.00;;;3.80;99.90;;;;;;5003585;28;20270;-81
2022/02/20 07:16:35;;;;;;;2.30;2.20;;;3.90;99.90;;;;;;5009437;28;20209;-80
2022/02/20 07:19:02;;;;;;;2.40;2.30;;;3.90;99.90;;;;;;5001997;28;20249;-79
2022/02/20 07:21:33;;;;;;;2.50;2.40;;;3.90;99.90;;;;;;5012455;27;20652;-78
2022/02/20 07:24:05;;;;;;;2.50;2.30;;;3.90;99.90;;;;;;5080739;28;20220;-78
2022/02/20 07:26:36;;;;;;;2.40;2.30;;;3.90;99.90;;;;;;5023427;28;20206;-77
2022/02/20 07:29:03;;;;;;;2.20;2.10;;;4.00;99.90;;;;;;5003777;28;20569;-78
2022/02/20 07:31:35;;;;;;;2.60;2.40;;;4.00;99.90;;;;;;5003206;28;20202;-78
2022/02/20 07:34:04;;;;;;;3.17;2.70;;;4.00;99.90;;;;;;5014251;28;20911;-78
2022/02/20 07:36:31;;;;;;;2.90;2.70;;;4.00;99.90;;;;;;5007454;28;20206;-79
2022/02/20 07:38:57;;;;;;;2.73;2.63;;;4.00;99.90;;;;;;5003830;28;20647;-79
2022/02/20 07:41:30;;;;;;;2.30;2.20;;;4.00;99.90;;;;;;5006374;28;20213;-80
2022/02/20 07:43:58;;;;;;;2.60;2.50;;;4.00;99.90;;;;;;5003240;28;21068;-79
2022/02/20 07:46:28;;;;;;;2.43;2.23;;;4.00;99.90;;;;;;5009730;28;20282;-78
2022/02/20 07:48:57;;;;;;;2.40;2.20;;;4.00;99.90;;;;;;5015001;28;20236;-79
2022/02/20 07:51:24;;;;;;;2.50;2.30;;;4.00;99.90;;;;;;5003782;28;20241;-78
2022/02/20 07:53:52;;;;;;;2.30;2.20;;;4.00;99.90;;;;;;5009109;28;20635;-78
2022/02/20 07:56:22;;;;;;;2.20;2.10;;;4.10;99.90;;;;;;5003158;28;20297;-79
2022/02/20 07:58:49;;;;;;;2.37;2.27;;;4.20;99.90;;;;;;5002544;28;20351;-78
2022/02/20 08:01:17;;;;;;;2.57;2.37;;;4.10;99.90;;;;;;5002929;28;20210;-78
2022/02/20 08:03:44;;;;;;;2.50;2.40;;;4.10;99.90;;;;;;5004984;28;20206;-78
2022/02/20 08:06:17;;;;;;;2.30;2.20;;;4.10;99.90;;;;;;5001212;28;20217;-77
2022/02/20 08:08:44;;;;;;;2.10;2.00;;;4.20;99.90;;;;;;5003578;28;20209;-78
2022/02/20 08:11:15;;;;;;;2.57;2.43;;;4.10;99.90;;;;;;4991641;28;20210;-77
2022/02/20 08:13:43;;;;;;;2.50;2.40;;;4.10;99.90;;;;;;5001907;28;20221;-78
2022/02/20 08:16:23;;;;;;;2.50;2.40;;;4.10;99.90;;;;;;5001108;28;20214;-78
2022/02/20 08:18:50;;;;;;;2.97;2.77;;;4.20;99.90;;;;;;5036576;28;20289;-78
2022/02/20 08:21:17;;;;;;;2.93;2.70;;;4.20;99.90;;;;;;5058668;28;20213;-80
2022/02/20 08:23:44;;;;;;;3.40;3.10;;;4.30;99.90;;;;;;5002614;28;20226;-80
2022/02/20 08:26:15;;;;;;;2.63;2.43;;;4.30;99.90;;;;;;5002308;28;20209;-80
2022/02/20 08:28:45;;;;;;;3.20;3.00;;;4.30;99.90;;;;;;4986793;28;20221;-80
2022/02/20 08:31:15;;;;;;;3.27;3.07;;;4.40;99.90;;;;;;5003567;28;20224;-80
2022/02/20 08:33:46;;;;;;;3.10;2.90;;;4.40;99.90;;;;;;5002947;28;20216;-79
2022/02/20 08:36:16;;;;;;;3.23;3.03;;;4.40;99.90;;;;;;5003536;27;20726;-79
2022/02/20 08:38:43;;;;;;;3.97;3.70;;;4.40;99.90;;;;;;5008784;28;20502;-80
2022/02/20 08:41:17;;;;;;;3.53;3.33;;;4.50;99.90;;;;;;4987889;28;20596;-80
2022/02/20 08:43:44;;;;;;;2.80;2.70;;;4.50;99.90;;;;;;5001664;28;20261;-79
2022/02/20 08:46:16;;;;;;;3.27;3.07;;;4.60;99.90;;;;;;5001379;28;20210;-78
2022/02/20 08:48:46;;;;;;;3.40;3.20;;;4.60;99.90;;;;;;5003238;28;20812;-78
2022/02/20 08:51:16;;;;;;;3.40;3.20;;;4.70;99.90;;;;;;5003169;28;20221;-78
2022/02/20 08:53:44;;;;;;;3.30;3.10;;;4.80;99.90;;;;;;4985758;28;20229;-81
2022/02/20 08:56:19;;;;;;;3.40;3.20;;;4.80;99.90;;;;;;5000480;28;20214;-80
2022/02/20 08:58:46;;;;;;;2.90;2.80;;;4.80;99.90;;;;;;5002075;28;20240;-80
2022/02/20 09:01:15;;;;;;;3.50;3.30;;;4.80;99.90;;;;;;5001903;28;20716;-81
2022/02/20 09:03:45;;;;;;;3.30;3.10;;;4.80;99.90;;;;;;5002680;28;20229;-81
2022/02/20 09:06:18;;;;;;;3.70;3.50;;;4.90;99.90;;;;;;4986092;28;20217;-82
2022/02/20 09:08:46;;;;;;;3.10;2.90;;;4.90;99.90;;;;;;5011297;28;20651;-81
2022/02/20 09:11:20;;;;;;;3.53;3.33;;;4.90;99.90;;;;;;5002226;28;20300;-80
2022/02/20 09:13:47;;;;;;;3.80;3.60;;;4.80;99.90;;;;;;5002835;28;20289;-82
2022/02/20 09:16:35;;;;;;;3.33;3.13;;;4.90;99.90;;;;;;5002381;28;20270;-76
2022/02/20 09:19:09;;;;;;;3.10;2.90;;;;;;;;;;5003101;28;20234;-77
2022/02/20 09:21:36;;;;;;;4.00;3.70;;;4.90;99.90;;;;;;4998301;28;20257;-77
2022/02/20 09:24:12;;;;;;;3.87;3.60;;;4.90;99.90;;;;;;4998459;28;20291;-80
2022/02/20 09:26:42;;;;;;;3.30;3.10;;;4.80;99.90;;;;;;5001499;28;20233;-80
2022/02/20 09:29:09;;;;;;;3.27;3.07;;;4.90;99.90;;;;;;5001195;28;20213;-79
2022/02/20 09:31:41;;;;;;;3.70;3.50;;;4.90;99.90;;;;;;5000465;28;20220;-80
2022/02/20 09:34:11;;;;;;;3.57;3.37;;;4.90;99.90;;;;;;5005852;28;20217;-80
2022/02/20 09:36:40;;;;;;;3.30;3.10;;;5.00;99.90;;;;;;4999994;28;20213;-80
2022/02/20 09:39:08;;;;;;;3.50;3.30;;;4.90;99.90;;;;;;4994495;28;20245;-80
2022/02/20 09:41:36;;;;;;;3.43;3.23;;;4.90;99.90;;;;;;5004174;28;20217;-80
2022/02/20 09:44:06;;;;;;;3.50;3.30;;;5.00;99.90;;;;;;5003151;28;20641;-78
2022/02/20 09:46:41;;;;;;;3.77;3.57;;;5.00;99.90;;;;;;5002900;28;20289;-78
2022/02/20 09:49:09;;;;;;;3.37;3.17;;;5.00;99.90;;;;;;5003354;28;20300;-78
2022/02/20 09:51:37;;;;;;;4.07;3.77;;;5.00;99.90;;;;;;5004031;28;20218;-78
2022/02/20 09:54:04;;;;;;;3.67;3.40;;;5.00;99.90;;;;;;5002486;28;20245;-78
2022/02/20 09:56:41;;;;;;;3.90;3.70;;;5.00;99.90;;;;;;5004060;28;20314;-78
2022/02/20 09:59:10;;;;;;;3.40;3.20;;;5.10;99.90;;;;;;5002001;28;20221;-79
2022/02/20 10:01:58;;;;;;;3.90;3.67;;;5.10;99.90;;;;;;5006421;28;20715;-79
2022/02/20 10:04:36;;;;;;;3.87;3.63;;;5.20;99.90;;;;;;5003297;28;20672;-79
2022/02/20 10:07:03;;;;;;;4.33;3.93;;;5.20;99.90;;;;;;5002756;28;20274;-80
2022/02/20 10:09:36;;;;;;;3.63;3.43;;;5.20;99.90;;;;;;5001621;28;20319;-79
2022/02/20 10:12:18;;;;;;;9.77;8.70;;;5.20;99.90;;;;;;5004499;27;20236;-79
2022/02/20 10:14:45;;;;;;;4.40;4.10;;;5.20;99.90;;;;;;5000615;28;20570;-79
2022/02/20 10:17:16;;;;;;;4.73;4.33;;;5.20;99.90;;;;;;4987360;28;21125;-79
2022/02/20 10:19:54;;;;;;;5.13;4.73;;;5.20;99.90;;;;;;5002431;28;20240;-79
2022/02/20 10:22:36;;;;;;;4.70;4.30;;;5.30;99.90;;;;;;5001098;28;20212;-79
2022/02/20 10:25:09;;;;;;;4.87;4.53;;;5.40;99.90;;;;;;5004436;28;20241;-80
2022/02/20 10:27:48;;;;;;;4.77;4.47;;;5.40;99.90;;;;;;5001380;28;20209;-80
2022/02/20 10:30:25;;;;;;;5.20;4.70;;;5.40;99.90;;;;;;5002980;28;20217;-79
2022/02/20 10:33:05;;;;;;;5.10;4.60;;;5.40;99.90;;;;;;5000661;28;20206;-79
2022/02/20 10:35:34;;;;;;;4.90;4.50;;;5.40;99.90;;;;;;5000612;28;20710;-79
2022/02/20 10:38:08;;;;;;;5.50;5.10;;;5.40;99.90;;;;;;4990385;28;20841;-79
2022/02/20 10:40:38;;;;;;;4.80;4.50;;;5.50;99.90;;;;;;5002750;28;20658;-79
2022/02/20 10:43:13;;;;;;;4.70;4.30;;;5.50;99.90;;;;;;5000668;27;20333;-79
2022/02/20 10:45:41;;;;;;;4.70;4.30;;;5.50;99.90;;;;;;5003449;28;20209;-81
2022/02/20 10:48:17;;;;;;;4.43;4.20;;;5.60;99.90;;;;;;4993484;28;20658;-79
2022/02/20 10:50:56;;;;;;;4.37;4.00;;;5.70;99.90;;;;;;5000728;28;20266;-79
2022/02/20 10:53:43;;;;;;;4.70;4.30;;;5.70;99.90;;;;;;4998153;28;20228;-79
2022/02/20 10:56:10;;;;;;;4.20;3.80;;;5.70;99.90;;;;;;5002556;28;20782;-79
2022/02/20 10:58:43;;;;;;;4.03;3.73;;;5.70;99.90;;;;;;5000656;28;20414;-79
2022/02/20 11:01:23;;;;;;;4.40;4.00;;;5.80;99.90;;;;;;5003153;28;20636;-79
2022/02/20 11:03:50;;;;;;;4.53;3.73;;;5.80;99.90;;;;;;5000610;28;20217;-79
2022/02/20 11:06:20;;;;;;;3.50;3.30;;;5.80;99.90;;;;;;5001772;27;20226;-80
2022/02/20 11:08:52;;;;;;;3.23;2.93;;;5.80;99.90;;;;;;5002615;28;20213;-79
2022/02/20 11:11:38;;;;;;;3.03;2.83;;;5.80;99.90;;;;;;5001805;27;20206;-78
2022/02/20 11:14:05;;;;;;;3.13;2.70;;;5.90;99.90;;;;;;5002904;28;20232;-79
2022/02/20 11:16:42;;;;;;;6.57;5.90;;;5.70;99.90;;;;;;4999550;28;20225;-78
2022/02/20 11:19:09;;;;;;;5.50;4.90;;;5.70;99.90;;;;;;5000297;28;20574;-78
2022/02/20 11:21:45;;;;;;;4.87;4.10;;;5.70;99.90;;;;;;5002867;28;20225;-78
2022/02/20 11:24:13;;;;;;;2.97;2.40;;;5.70;99.90;;;;;;4999737;28;20225;-78
2022/02/20 11:26:43;;;;;;;2.20;2.10;;;5.70;99.90;;;;;;4986458;28;20218;-78
2022/02/20 11:29:10;;;;;;;2.50;2.30;;;5.70;99.90;;;;;;5029541;28;20650;-74
2022/02/20 11:31:39;;;;;;;1.77;1.67;;;5.60;99.90;;;;;;5041951;28;20217;-79
2022/02/20 11:34:13;;;;;;;2.00;1.90;;;5.50;99.90;;;;;;5007291;28;20259;-81
2022/02/20 11:36:52;;;;;;;2.60;2.37;;;5.50;99.90;;;;;;5003327;28;20304;-79
2022/02/20 11:39:19;;;;;;;2.67;2.17;;;5.40;99.90;;;;;;5005518;28;20243;-78
2022/02/20 11:42:07;;;;;;;2.53;2.33;;;5.40;99.90;;;;;;5011458;28;20262;-79
2022/02/20 11:44:46;;;;;;;2.70;2.50;;;5.30;99.90;;;;;;5004192;28;20209;-79
2022/02/20 11:47:40;;;;;;;2.40;2.20;;;5.30;99.90;;;;;;5004203;28;20205;-77
2022/02/20 11:50:34;;;;;;;2.70;2.50;;;5.30;99.90;;;;;;5002761;28;20427;-75
2022/02/20 11:53:03;;;;;;;3.57;2.70;;;5.30;99.90;;;;;;5005157;28;20227;-78
2022/02/20 11:55:32;;;;;;;2.70;2.50;;;5.30;99.90;;;;;;5072692;28;20314;-78
2022/02/20 11:58:29;;;;;;;3.33;2.47;;;5.30;99.90;;;;;;5006640;28;20267;-78
2022/02/20 12:01:15;;;;;;;3.63;2.43;;;5.30;99.90;;;;;;5066149;28;20235;-79
2022/02/20 12:04:13;;;;;;;2.83;2.63;;;5.10;99.90;;;;;;5015989;28;20566;-79
2022/02/20 12:06:40;;;;;;;3.27;2.97;;;5.00;99.90;;;;;;5022231;28;20198;-78
2022/02/20 12:09:29;;;;;;;3.07;2.87;;;5.00;99.90;;;;;;5014879;28;20225;-78
2022/02/20 12:11:56;;;;;;;3.13;2.80;;;4.90;99.90;;;;;;5004383;28;20236;-79
2022/02/20 12:14:25;;;;;;;3.23;2.93;;;4.90;99.90;;;;;;5010850;28;20217;-79
2022/02/20 12:16:54;;;;;;;3.43;3.10;;;4.90;99.90;;;;;;5005418;28;20205;-78
2022/02/20 12:19:25;;;;;;;3.03;2.73;;;4.80;99.90;;;;;;5009310;28;20290;-78
2022/02/20 12:21:56;;;;;;;3.53;3.00;;;4.80;99.90;;;;;;5002620;28;20209;-79
2022/02/20 12:24:27;;;;;;;3.10;2.90;;;4.90;99.90;;;;;;5006149;28;20210;-78
2022/02/20 12:26:56;;;;;;;3.40;3.20;;;4.80;99.90;;;;;;5013201;28;20214;-78
2022/02/20 12:29:25;;;;;;;3.50;3.30;;;4.70;99.90;;;;;;5002839;28;20215;-78
2022/02/20 12:32:10;;;;;;;3.83;3.33;;;4.70;99.90;;;;;;5002987;28;20205;-79
2022/02/20 12:34:56;;;;;;;4.00;3.20;;;4.70;99.90;;;;;;5005636;28;20206;-78
2022/02/20 12:37:25;;;;;;;4.23;3.17;;;4.80;99.90;;;;;;5002780;28;20201;-78
2022/02/20 12:39:54;;;;;;;3.70;3.40;;;4.80;99.90;;;;;;5005428;28;20271;-79
2022/02/20 12:42:21;;;;;;;5.33;3.67;;;4.80;99.90;;;;;;5003664;28;20648;-78
2022/02/20 12:44:49;;;;;;;4.97;3.37;;;4.90;99.90;;;;;;5004363;28;20266;-79
2022/02/20 12:47:17;;;;;;;6.87;3.93;;;4.90;99.90;;;;;;5001558;28;20249;-78
2022/02/20 12:49:53;;;;;;;5.80;4.00;;;4.90;99.90;;;;;;5003600;28;20224;-79
2022/02/20 12:52:19;;;;;;;5.23;3.80;;;4.90;99.90;;;;;;5014110;28;20274;-78
2022/02/20 12:54:48;;;;;;;4.80;3.90;;;4.90;99.90;;;;;;5008411;28;20237;-78
2022/02/20 12:57:19;;;;;;;4.47;3.80;;;5.00;99.90;;;;;;5001398;28;20278;-78
2022/02/20 12:59:57;;;;;;;4.67;3.53;;;5.00;99.90;;;;;;5009081;28;20233;-79
2022/02/20 13:02:38;;;;;;;4.87;3.97;;;5.00;99.90;;;;;;5004371;28;20792;-78
2022/02/20 13:05:10;;;;;;;5.37;4.03;;;5.00;99.90;;;;;;5004514;28;20214;-75
2022/02/20 13:07:42;;;;;;;4.30;3.90;;;5.10;99.90;;;;;;4997486;28;20206;-75
2022/02/20 13:10:10;;;;;;;5.90;4.20;;;5.10;99.90;;;;;;5005190;28;20248;-78
2022/02/20 13:12:36;;;;;;;5.73;4.00;;;5.10;99.90;;;;;;5006212;28;20209;-78